createdAt,value
2018-06-21T00:00:28.763Z,81.99
2018-06-21T00:01:28.761Z,81.7
2018-06-21T00:02:28.512Z,81.6
2018-06-21T00:03:28.781Z,82.09
2018-06-21T00:04:29.576Z,82.09
2018-06-21T00:05:28.883Z,82.09
2018-06-21T00:06:28.530Z,82.76
2018-06-21T00:07:28.788Z,83.05
2018-06-21T00:08:28.537Z,83.73
2018-06-21T00:09:28.782Z,83.73
2018-06-21T00:10:28.789Z,84.41
2018-06-21T00:11:28.882Z,84.41
2018-06-21T00:12:28.793Z,84.69
2018-06-21T00:13:28.798Z,84.79
2018-06-21T00:14:28.541Z,84.5
2018-06-21T00:15:28.799Z,84.41
2018-06-21T00:16:28.813Z,84.98
2018-06-21T00:17:28.808Z,84.89
2018-06-21T00:18:28.601Z,85.17
2018-06-21T00:19:28.816Z,85.56
2018-06-21T00:20:28.812Z,85.17
2018-06-21T00:21:28.828Z,84.89
2018-06-21T00:22:28.566Z,85.27
2018-06-21T00:23:28.828Z,84.59
2018-06-21T00:24:28.573Z,85.17
2018-06-21T00:25:28.576Z,84.5
2018-06-21T00:26:28.836Z,85.17
2018-06-21T00:27:28.576Z,84.79
2018-06-21T00:28:28.837Z,84.35
2018-06-21T00:29:28.584Z,84.74
2018-06-21T00:30:28.842Z,84.64
2018-06-21T00:31:28.590Z,85.02
2018-06-21T00:32:28.843Z,85.02
2018-06-21T00:33:28.856Z,84.74
2018-06-21T00:34:28.608Z,84.93
2018-06-21T00:35:28.858Z,85.02
2018-06-21T00:36:28.601Z,84.64
2018-06-21T00:37:28.857Z,84.74
2018-06-21T00:38:28.607Z,84.83
2018-06-21T00:39:28.871Z,84.93
2018-06-21T00:40:28.865Z,84.74
2018-06-21T00:41:28.893Z,85.02
2018-06-21T00:42:28.618Z,84.54
2018-06-21T00:43:28.876Z,85.41
2018-06-21T00:44:28.646Z,85.12
2018-06-21T00:45:28.629Z,84.74
2018-06-21T00:46:28.874Z,84.64
2018-06-21T00:47:28.873Z,84.64
2018-06-21T00:48:28.873Z,85.31
2018-06-21T00:49:28.874Z,85.02
2018-06-21T00:50:28.919Z,84.64
2018-06-21T00:51:28.882Z,85.12
2018-06-21T00:52:28.891Z,84.74
2018-06-21T00:53:28.637Z,85.5
2018-06-21T00:54:28.656Z,85.31
2018-06-21T00:55:28.926Z,84.74
2018-06-21T00:56:28.908Z,85.37
2018-06-21T00:57:28.911Z,85.85
2018-06-21T00:58:28.917Z,86.04
2018-06-21T00:59:28.665Z,86.43
2018-06-21T01:00:28.922Z,86.33
2018-06-21T01:01:28.923Z,87.1
2018-06-21T01:02:28.671Z,86.72
2018-06-21T01:03:28.675Z,87.2
2018-06-21T01:04:28.678Z,87.01
2018-06-21T01:05:28.682Z,86.91
2018-06-21T01:06:28.682Z,87.2
2018-06-21T01:07:28.949Z,87.49
2018-06-21T01:08:28.689Z,88.07
2018-06-21T01:09:28.691Z,88.75
2018-06-21T01:10:28.950Z,87.88
2018-06-21T01:11:28.958Z,89.57
2018-06-21T01:12:28.952Z,89.09
2018-06-21T01:13:28.978Z,89.18
2018-06-21T01:14:28.954Z,89.28
2018-06-21T01:15:29.040Z,88.99
2018-06-21T01:16:28.955Z,88.51
2018-06-21T01:17:28.966Z,88.7
2018-06-21T01:18:28.978Z,88.7
2018-06-21T01:19:28.721Z,88.99
2018-06-21T01:20:28.973Z,88.31
2018-06-21T01:21:28.719Z,89.28
2018-06-21T01:22:28.973Z,88.99
2018-06-21T01:23:28.980Z,89.18
2018-06-21T01:24:28.984Z,89.67
2018-06-21T01:25:29.186Z,89.76
2018-06-21T01:26:28.986Z,89.37
2018-06-21T01:27:28.988Z,89.67
2018-06-21T01:28:28.742Z,89.95
2018-06-21T01:29:28.995Z,90.15
2018-06-21T01:30:29.016Z,90.05
2018-06-21T01:31:29.015Z,89.95
2018-06-21T01:32:29.011Z,90.15
2018-06-21T01:33:29.017Z,90.15
2018-06-21T01:34:29.012Z,89.47
2018-06-21T01:35:29.006Z,89.67
2018-06-21T01:36:29.015Z,89.57
2018-06-21T01:37:29.018Z,89.09
2018-06-21T01:38:28.768Z,89.37
2018-06-21T01:39:29.023Z,88.89
2018-06-21T01:40:29.032Z,89.37
2018-06-21T01:41:29.020Z,88.7
2018-06-21T01:42:28.770Z,89.47
2018-06-21T01:43:29.031Z,89.18
2018-06-21T01:44:29.051Z,89.28
2018-06-21T01:45:28.777Z,89.67
2018-06-21T01:46:28.786Z,90.15
2018-06-21T01:47:28.789Z,90.24
2018-06-21T01:48:29.043Z,90.34
2018-06-21T01:49:28.807Z,90.24
2018-06-21T01:50:29.079Z,90.24
2018-06-21T01:51:29.042Z,89.86
2018-06-21T01:52:29.062Z,90.44
2018-06-21T01:53:29.048Z,90.05
2018-06-21T01:54:28.842Z,89.47
2018-06-21T01:55:29.056Z,89.67
2018-06-21T01:56:29.058Z,89.57
2018-06-21T01:57:28.808Z,90.05
2018-06-21T01:58:29.055Z,90.24
2018-06-21T01:59:28.820Z,90.34
2018-06-21T02:00:29.063Z,91.2
2018-06-21T02:01:29.071Z,91.26
2018-06-21T02:02:28.818Z,91.69
2018-06-21T02:03:28.820Z,91.74
2018-06-21T02:04:28.824Z,91.93
2018-06-21T02:05:29.083Z,92.13
2018-06-21T02:06:28.828Z,92.32
2018-06-21T02:07:29.099Z,92.32
2018-06-21T02:08:29.084Z,93.19
2018-06-21T02:09:29.087Z,94.06
2018-06-21T02:10:29.254Z,94.15
2018-06-21T02:11:29.093Z,93.09
2018-06-21T02:12:29.146Z,92.8
2018-06-21T02:13:28.845Z,92.8
2018-06-21T02:14:29.123Z,93.38
2018-06-21T02:15:28.845Z,93.19
2018-06-21T02:16:28.854Z,93.28
2018-06-21T02:17:29.102Z,93.19
2018-06-21T02:18:29.105Z,92.99
2018-06-21T02:19:28.859Z,93.76
2018-06-21T02:20:29.120Z,93.96
2018-06-21T02:21:29.124Z,94.24
2018-06-21T02:22:28.863Z,94.59
2018-06-21T02:23:28.882Z,94.63
2018-06-21T02:24:28.868Z,94.59
2018-06-21T02:25:28.881Z,93.86
2018-06-21T02:26:29.137Z,93.43
2018-06-21T02:27:29.142Z,93.86
2018-06-21T02:28:28.875Z,92.99
2018-06-21T02:29:29.143Z,92.8
2018-06-21T02:30:28.898Z,93.19
2018-06-21T02:31:28.882Z,93.38
2018-06-21T02:32:29.201Z,92.8
2018-06-21T02:33:29.136Z,94.06
2018-06-21T02:34:29.414Z,94.06
2018-06-21T02:35:29.150Z,94.49
2018-06-21T02:36:28.895Z,94.68
2018-06-21T02:37:29.149Z,95.45
2018-06-21T02:38:29.147Z,95.55
2018-06-21T02:39:28.901Z,96.22
2018-06-21T02:40:30.099Z,96.7
2018-06-21T02:41:28.901Z,96.99
2018-06-21T02:42:29.191Z,96.42
2018-06-21T02:43:28.908Z,96.61
2018-06-21T02:44:28.930Z,97.04
2018-06-21T02:45:29.285Z,96.75
2018-06-21T02:46:29.171Z,97.33
2018-06-21T02:47:29.177Z,97.33
2018-06-21T02:48:29.189Z,96.94
2018-06-21T02:49:29.178Z,97.42
2018-06-21T02:50:29.200Z,97.33
2018-06-21T02:51:29.193Z,97.42
2018-06-21T02:52:29.172Z,97.52
2018-06-21T02:53:28.924Z,97.04
2018-06-21T02:54:29.187Z,97.24
2018-06-21T02:55:28.939Z,97.42
2018-06-21T02:56:28.932Z,97.91
2018-06-21T02:57:28.934Z,97.42
2018-06-21T02:58:28.934Z,97.33
2018-06-21T02:59:29.190Z,97.52
2018-06-21T03:00:29.207Z,97.24
2018-06-21T03:01:28.992Z,97.91
2018-06-21T03:02:29.207Z,97.62
2018-06-21T03:03:29.194Z,98.19
2018-06-21T03:04:29.216Z,98.19
2018-06-21T03:05:29.203Z,97.81
2018-06-21T03:06:28.949Z,98.87
2018-06-21T03:07:28.970Z,98.58
2018-06-21T03:08:28.949Z,98.77
2018-06-21T03:09:28.960Z,98.68
2018-06-21T03:10:29.465Z,99.74
2018-06-21T03:11:29.211Z,99.64
2018-06-21T03:12:28.987Z,98.49
2018-06-21T03:13:28.959Z,99.16
2018-06-21T03:14:29.227Z,98.39
2018-06-21T03:15:28.961Z,98.39
2018-06-21T03:16:28.977Z,98.29
2018-06-21T03:17:29.229Z,98.1
2018-06-21T03:18:29.230Z,97.42
2018-06-21T03:19:29.269Z,98.1
2018-06-21T03:20:28.984Z,98.29
2018-06-21T03:21:29.235Z,98.29
2018-06-21T03:22:29.231Z,99.06
2018-06-21T03:23:28.979Z,98.77
2018-06-21T03:24:29.242Z,98.68
2018-06-21T03:25:29.353Z,99.64
2018-06-21T03:26:29.263Z,99.35
2018-06-21T03:27:28.981Z,99.74
2018-06-21T03:28:28.983Z,99.44
2018-06-21T03:29:29.237Z,99.44
2018-06-21T03:30:29.235Z,99.16
2018-06-21T03:31:28.994Z,99.16
2018-06-21T03:32:28.997Z,98.29
2018-06-21T03:33:29.245Z,98.39
2018-06-21T03:34:29.006Z,98.39
2018-06-21T03:35:29.003Z,97.91
2018-06-21T03:36:29.280Z,97.52
2018-06-21T03:37:29.013Z,97.33
2018-06-21T03:38:29.272Z,97.91
2018-06-21T03:39:29.011Z,97.52
2018-06-21T03:40:29.010Z,97.04
2018-06-21T03:41:29.021Z,97.33
2018-06-21T03:42:29.282Z,97.04
2018-06-21T03:43:29.015Z,97.14
2018-06-21T03:44:29.269Z,97.04
2018-06-21T03:45:29.267Z,96.94
2018-06-21T03:46:29.270Z,97.04
2018-06-21T03:47:29.022Z,97.04
2018-06-21T03:48:29.297Z,96.56
2018-06-21T03:49:29.275Z,95.36
2018-06-21T03:50:29.285Z,95.94
2018-06-21T03:51:29.041Z,95.26
2018-06-21T03:52:29.031Z,95.45
2018-06-21T03:53:29.282Z,95.07
2018-06-21T03:54:29.028Z,94.34
2018-06-21T03:55:29.041Z,94.39
2018-06-21T03:56:29.286Z,93.28
2018-06-21T03:57:29.301Z,92.61
2018-06-21T03:58:29.047Z,92.22
2018-06-21T03:59:29.052Z,92.8
2018-06-21T04:00:29.304Z,92.22
2018-06-21T04:01:29.319Z,93.09
2018-06-21T04:02:29.063Z,92.99
2018-06-21T04:03:29.371Z,93.96
2018-06-21T04:04:29.062Z,93.86
2018-06-21T04:05:29.125Z,92.61
2018-06-21T04:06:29.310Z,91.3
2018-06-21T04:07:29.332Z,90.34
2018-06-21T04:08:29.137Z,88.75
2018-06-21T04:09:29.323Z,87.2
2018-06-21T04:10:29.078Z,85.22
2018-06-21T04:11:29.331Z,84.74
2018-06-21T04:12:29.338Z,83.81
2018-06-21T04:13:29.080Z,82.46
2018-06-21T04:14:29.330Z,81.92
2018-06-21T04:15:29.355Z,81.44
2018-06-21T04:16:29.089Z,80.76
2018-06-21T04:17:29.424Z,80.22
2018-06-21T04:18:29.400Z,79.54
2018-06-21T04:19:29.376Z,78.87
2018-06-21T04:20:29.356Z,78.09
2018-06-21T04:21:29.106Z,78.09
2018-06-21T04:22:29.375Z,77.94
2018-06-21T04:23:29.375Z,77.07
2018-06-21T04:24:29.131Z,76.68
2018-06-21T04:25:29.397Z,76.14
2018-06-21T04:26:29.395Z,75.27
2018-06-21T04:27:29.389Z,75.17
2018-06-21T04:28:29.140Z,73.95
2018-06-21T04:29:29.149Z,73.37
2018-06-21T04:30:29.441Z,72.4
2018-06-21T04:31:29.408Z,71.95
2018-06-21T04:32:29.499Z,71.95
2018-06-21T04:33:29.169Z,71.66
2018-06-21T04:34:29.173Z,71.37
2018-06-21T04:35:29.431Z,70.79
2018-06-21T04:36:29.431Z,70.89
2018-06-21T04:37:29.439Z,70.6
2018-06-21T04:38:29.230Z,70.31
2018-06-21T04:39:29.460Z,70.34
2018-06-21T04:40:29.458Z,69.95
2018-06-21T04:41:29.745Z,69.27
2018-06-21T04:42:29.217Z,69.47
2018-06-21T04:43:29.476Z,69.37
2018-06-21T04:44:29.483Z,68.99
2018-06-21T04:45:29.233Z,69.18
2018-06-21T04:46:29.289Z,69.18
2018-06-21T04:47:29.246Z,68.89
2018-06-21T04:48:29.252Z,68.7
2018-06-21T04:49:29.527Z,67.92
2018-06-21T04:50:29.274Z,68.44
2018-06-21T04:51:29.538Z,67.76
2018-06-21T04:52:29.523Z,67.57
2018-06-21T04:53:29.530Z,67.11
2018-06-21T04:54:29.294Z,67.21
2018-06-21T04:55:29.581Z,66.44
2018-06-21T04:56:29.551Z,66.44
2018-06-21T04:57:29.553Z,66.14
2018-06-21T04:58:29.560Z,66.34
2018-06-21T04:59:29.320Z,65.89
2018-06-21T05:00:29.319Z,65.5
2018-06-21T05:01:29.583Z,65.79
2018-06-21T05:02:29.333Z,65.89
2018-06-21T05:03:29.598Z,65.98
2018-06-21T05:04:29.597Z,66.66
2018-06-21T05:05:29.607Z,66.44
2018-06-21T05:06:29.895Z,66.34
2018-06-21T05:07:29.414Z,65.79
2018-06-21T05:08:29.630Z,65.11
2018-06-21T05:09:29.625Z,65.11
2018-06-21T05:10:29.643Z,65.11
2018-06-21T05:11:29.909Z,64.62
2018-06-21T05:12:29.396Z,65.14
2018-06-21T05:13:29.400Z,66.17
2018-06-21T05:14:29.665Z,67.5
2018-06-21T05:15:29.708Z,67.66
2018-06-21T05:16:29.725Z,67.37
2018-06-21T05:17:29.427Z,66.69
2018-06-21T05:18:29.690Z,66.24
2018-06-21T05:19:29.698Z,65.56
2018-06-21T05:20:29.750Z,64.53
2018-06-21T05:21:29.711Z,63.75
2018-06-21T05:22:29.711Z,62.32
2018-06-21T05:23:29.720Z,61.68
2018-06-21T05:24:29.725Z,61.12
2018-06-21T05:25:29.740Z,59.67
2018-06-21T05:26:29.744Z,59.21
2018-06-21T05:27:29.761Z,58.46
2018-06-21T05:28:29.773Z,57.97
2018-06-21T05:29:29.503Z,57.87
2018-06-21T05:30:29.839Z,57.42
2018-06-21T05:31:29.518Z,57.22
2018-06-21T05:32:29.523Z,57.61
2018-06-21T05:33:29.788Z,57.81
2018-06-21T05:34:29.542Z,57.9
2018-06-21T05:35:29.800Z,57.81
2018-06-21T05:36:29.817Z,57.32
2018-06-21T05:37:29.860Z,57.81
2018-06-21T05:38:29.571Z,58.36
2018-06-21T05:39:29.829Z,58.07
2018-06-21T05:40:29.843Z,57.59
2018-06-21T05:41:33.061Z,57.9
2018-06-21T05:42:29.865Z,57.81
2018-06-21T05:43:29.604Z,57.81
2018-06-21T05:44:29.995Z,56.84
2018-06-21T05:45:29.875Z,56.45
2018-06-21T05:46:29.644Z,56.27
2018-06-21T05:47:29.891Z,54.62
2018-06-21T05:48:29.650Z,53.6
2018-06-21T05:49:29.921Z,53.5
2018-06-21T05:50:29.925Z,52.83
2018-06-21T05:51:29.688Z,52.95
2018-06-21T05:52:29.673Z,52.85
2018-06-21T05:53:29.932Z,53.34
2018-06-21T05:54:29.705Z,52.36
2018-06-21T05:55:29.960Z,52.48
2018-06-21T05:56:29.963Z,52.46
2018-06-21T05:57:29.994Z,52.09
2018-06-21T05:58:29.982Z,51.7
2018-06-21T05:59:29.734Z,51.21
2018-06-21T06:00:29.997Z,51.41
2018-06-21T06:01:30.003Z,51.21
2018-06-21T06:02:30.004Z,50.95
2018-06-21T06:03:30.018Z,50.36
2018-06-21T06:04:29.771Z,50.26
2018-06-21T06:05:29.796Z,49.71
2018-06-21T06:06:29.788Z,50.29
2018-06-21T06:07:29.792Z,49.9
2018-06-21T06:08:30.141Z,49.32
2018-06-21T06:09:30.071Z,48.75
2018-06-21T06:10:30.070Z,48.16
2018-06-21T06:11:30.084Z,48.16
2018-06-21T06:12:29.838Z,48.26
2018-06-21T06:13:30.104Z,47.11
2018-06-21T06:24:21.714Z,43.38
2018-06-21T06:25:21.465Z,41.94
2018-06-21T06:26:21.468Z,42.25
2018-06-21T06:27:21.726Z,41.88
2018-06-21T06:28:21.742Z,41.39
2018-06-21T06:29:21.491Z,41.41
2018-06-21T06:30:21.573Z,40.94
2018-06-21T06:31:21.778Z,40.92
2018-06-21T06:32:21.777Z,40.92
2018-06-21T06:33:21.789Z,40.53
2018-06-21T06:34:21.788Z,41.11
2018-06-21T06:35:21.832Z,41.21
2018-06-21T06:36:21.807Z,41.53
2018-06-21T06:37:21.814Z,40.92
2018-06-21T06:38:21.585Z,42
2018-06-21T06:39:21.576Z,41.58
2018-06-21T06:40:22.039Z,41.98
2018-06-21T06:41:21.848Z,41.88
2018-06-21T06:42:21.862Z,42.27
2018-06-21T06:43:21.881Z,41.49
2018-06-21T06:44:21.931Z,41.11
2018-06-21T06:45:21.667Z,40.84
2018-06-21T06:46:22.129Z,40.37
2018-06-21T06:47:21.652Z,39.78
2018-06-21T06:48:21.914Z,40.56
2018-06-21T06:49:21.680Z,39.88
2018-06-21T06:50:22.025Z,39.39
2018-06-21T06:51:21.697Z,39.98
2018-06-21T06:52:21.732Z,39.78
2018-06-21T06:53:21.988Z,39.39
2018-06-21T06:54:22.058Z,40.27
2018-06-21T06:55:21.766Z,39.39
2018-06-21T06:56:22.003Z,39.88
2018-06-21T06:57:22.016Z,39.5
2018-06-21T06:58:21.761Z,39.11
2018-06-21T06:59:22.032Z,39.01
2018-06-21T07:00:22.112Z,39.4
2018-06-21T07:01:21.797Z,40.76
2018-06-21T07:02:22.068Z,40.82
2018-06-21T07:03:22.083Z,41.61
2018-06-21T07:04:22.086Z,41.58
2018-06-21T07:05:21.870Z,41.68
2018-06-21T07:06:22.101Z,41.39
2018-06-21T07:07:22.116Z,41.08
2018-06-21T07:08:22.235Z,41.45
2018-06-21T07:09:22.130Z,41.37
2018-06-21T07:10:22.253Z,41.27
2018-06-21T07:11:22.153Z,40.51
2018-06-21T07:12:21.899Z,41.39
2018-06-21T07:13:22.163Z,41.58
2018-06-21T07:14:22.443Z,40.33
2018-06-21T07:15:21.934Z,39.35
2018-06-21T07:16:21.941Z,38.29
2018-06-21T07:17:21.956Z,37.72
2018-06-21T07:18:22.235Z,36.83
2018-06-21T07:19:22.228Z,35.26
2018-06-21T07:20:22.269Z,35.85
2018-06-21T07:21:21.993Z,35.18
2018-06-21T07:22:22.259Z,33.62
2018-06-21T07:23:22.275Z,33.05
2018-06-21T07:24:22.026Z,33.86
2018-06-21T07:25:22.295Z,32.08
2018-06-21T07:26:22.302Z,31.31
2018-06-21T07:27:22.311Z,31.88
2018-06-21T07:28:22.432Z,33.15
2018-06-21T07:29:22.328Z,33.61
2018-06-21T07:30:22.342Z,34.2
2018-06-21T07:31:22.355Z,34.87
2018-06-21T07:32:22.099Z,34.77
2018-06-21T07:33:22.378Z,34.99
2018-06-21T07:34:22.381Z,34.78
2018-06-21T07:35:22.473Z,34.39
2018-06-21T07:36:22.165Z,34.78
2018-06-21T07:37:22.412Z,35.85
2018-06-21T07:38:22.445Z,35.66
2018-06-21T07:39:22.429Z,34.39
2018-06-21T07:40:22.470Z,34.41
2018-06-21T07:41:22.457Z,33.84
2018-06-21T07:42:22.233Z,32.48
2018-06-21T07:43:22.478Z,30.54
2018-06-21T07:44:22.482Z,30.35
2018-06-21T07:45:22.530Z,30.94
2018-06-21T07:46:22.513Z,30.63
2018-06-21T07:47:22.269Z,30.15
2018-06-21T07:48:22.540Z,30.62
2018-06-21T07:49:22.536Z,29.93
2018-06-21T07:50:22.558Z,30.22
2018-06-21T07:51:22.310Z,30.32
2018-06-21T07:52:22.536Z,29.83
2018-06-21T07:53:22.582Z,28.77
2018-06-21T07:54:22.593Z,30.03
2018-06-21T07:55:22.620Z,28.86
2018-06-21T07:56:22.362Z,28.56
2018-06-21T07:57:22.626Z,27.09
2018-06-21T07:58:22.637Z,27.48
2018-06-21T07:59:22.654Z,28.65
2018-06-21T08:00:22.702Z,29.02
2018-06-21T08:01:22.419Z,29.41
2018-06-21T08:02:22.426Z,29.41
2018-06-21T08:03:22.708Z,29.8
2018-06-21T08:04:22.701Z,29.61
2018-06-21T08:05:22.496Z,28.72
2018-06-21T08:06:22.470Z,29.02
2018-06-21T08:07:22.730Z,30
2018-06-21T08:08:22.757Z,29.79
2018-06-21T08:09:22.761Z,29.31
2018-06-21T08:10:22.786Z,29.31
2018-06-21T08:11:22.774Z,29.62
2018-06-21T08:12:22.812Z,28.93
2018-06-21T08:13:22.801Z,28.45
2018-06-21T08:14:22.707Z,29.44
2018-06-21T08:15:22.823Z,30.31
2018-06-21T08:16:22.586Z,30.79
2018-06-21T08:17:22.589Z,30.1
2018-06-21T08:18:22.858Z,29.71
2018-06-21T08:19:22.862Z,29.41
2018-06-21T08:20:23.075Z,29.8
2018-06-21T08:21:22.885Z,30.59
2018-06-21T08:22:22.646Z,30.69
2018-06-21T08:23:23.144Z,29.33
2018-06-21T08:24:22.928Z,28.74
2018-06-21T08:25:22.988Z,29.33
2018-06-21T08:26:22.939Z,30.3
2018-06-21T08:27:22.954Z,30.68
2018-06-21T08:28:22.959Z,30.58
2018-06-21T08:29:22.970Z,30.47
2018-06-21T08:30:23.013Z,29.8
2018-06-21T08:31:22.988Z,30.1
2018-06-21T08:32:23.128Z,31.07
2018-06-21T08:33:23.013Z,31.53
2018-06-21T08:34:23.022Z,33.07
2018-06-21T08:35:23.045Z,34.39
2018-06-21T08:36:22.785Z,36.22
2018-06-21T08:37:23.052Z,38.12
2018-06-21T08:38:23.051Z,40.01
2018-06-21T08:39:23.059Z,41.83
2018-06-21T08:40:23.157Z,42.79
2018-06-21T08:41:23.074Z,44.01
2018-06-21T08:42:23.091Z,44.98
2018-06-21T08:43:22.841Z,45.45
2018-06-21T08:44:23.361Z,45.84
2018-06-21T08:45:22.870Z,46.4
2018-06-21T08:46:22.863Z,46.01
2018-06-21T08:47:23.125Z,45.45
2018-06-21T08:48:23.134Z,44.23
2018-06-21T08:49:23.131Z,44.54
2018-06-21T08:50:23.147Z,44.34
2018-06-21T08:51:23.158Z,43.47
2018-06-21T08:52:23.349Z,43.12
2018-06-21T08:53:22.924Z,42.9
2018-06-21T08:54:23.171Z,42.24
2018-06-21T08:55:22.921Z,41.38
2018-06-21T08:56:22.929Z,40.8
2018-06-21T08:57:23.216Z,39.84
2018-06-21T08:58:23.278Z,39.96
2018-06-21T08:59:23.220Z,40.43
2018-06-21T09:00:23.238Z,39.92
2018-06-21T09:01:22.964Z,41.17
2018-06-21T09:02:22.982Z,40.95
2018-06-21T09:03:23.234Z,42
2018-06-21T09:04:23.245Z,41.79
2018-06-21T09:05:23.037Z,41.99
2018-06-21T09:06:23.267Z,41.11
2018-06-21T09:07:23.266Z,41.4
2018-06-21T09:08:23.273Z,40.03
2018-06-21T09:09:23.322Z,40.03
2018-06-21T09:10:23.404Z,38.77
2018-06-21T09:11:23.298Z,39.06
2018-06-21T09:12:23.303Z,39.72
2018-06-21T09:13:23.311Z,40.09
2018-06-21T09:14:23.317Z,39.61
2018-06-21T09:15:23.552Z,40
2018-06-21T09:16:23.352Z,40.01
2018-06-21T09:17:23.342Z,38.56
2018-06-21T09:18:23.377Z,38.57
2018-06-21T09:19:23.351Z,37.99
2018-06-21T09:20:23.116Z,37.7
2018-06-21T09:21:23.131Z,37.7
2018-06-21T09:22:23.124Z,37.99
2018-06-21T09:23:23.145Z,37.77
2018-06-21T09:24:23.394Z,37.77
2018-06-21T09:25:23.159Z,37.97
2018-06-21T09:26:23.419Z,38.64
2018-06-21T09:27:23.416Z,38.24
2018-06-21T09:28:23.417Z,38.73
2018-06-21T09:29:23.184Z,38.34
2018-06-21T09:30:23.432Z,37.95
2018-06-21T09:31:23.438Z,38.36
2018-06-21T09:32:23.442Z,37.58
2018-06-21T09:33:23.532Z,37.77
2018-06-21T09:34:23.215Z,38.75
2018-06-21T09:35:23.520Z,38.34
2018-06-21T09:36:23.215Z,38.24
2018-06-21T09:37:23.471Z,38.34
2018-06-21T09:38:23.490Z,37.97
2018-06-21T09:39:23.488Z,38.64
2018-06-21T09:40:23.525Z,38.73
2018-06-21T09:41:23.249Z,39.03
2018-06-21T09:42:23.539Z,39.12
2018-06-21T09:43:23.257Z,39.7
2018-06-21T09:44:23.515Z,39.59
2018-06-21T09:45:23.568Z,39.59
2018-06-21T09:46:33.874Z,40.08
2018-06-21T09:47:23.283Z,40.17
2018-06-21T09:48:23.554Z,40.17
2018-06-21T09:49:23.552Z,40.93
2018-06-21T09:50:23.444Z,41.05
2018-06-21T09:51:23.311Z,41.05
2018-06-21T09:52:23.347Z,40.95
2018-06-21T09:53:23.572Z,41.53
2018-06-21T09:54:23.333Z,41.53
2018-06-21T09:55:23.657Z,41.24
2018-06-21T09:56:23.593Z,40.95
2018-06-21T09:57:23.605Z,41.24
2018-06-21T09:58:23.355Z,40.56
2018-06-21T09:59:23.361Z,41.05
2018-06-21T10:00:23.626Z,39.98
2018-06-21T10:01:23.378Z,40.09
2018-06-21T10:02:23.382Z,40.39
2018-06-21T10:03:23.380Z,41.14
2018-06-21T10:04:23.652Z,40.17
2018-06-21T10:05:23.466Z,40.09
2018-06-21T10:06:23.654Z,39.41
2018-06-21T10:07:23.671Z,39.8
2018-06-21T10:08:23.411Z,39.04
2018-06-21T10:09:23.673Z,38.26
2018-06-21T10:10:23.731Z,38.46
2018-06-21T10:11:23.693Z,37.97
2018-06-21T10:12:23.699Z,37.41
2018-06-21T10:13:23.701Z,37.12
2018-06-21T10:14:25.308Z,37.6
2018-06-21T10:15:23.822Z,36.92
2018-06-21T10:16:23.718Z,36.82
2018-06-21T10:17:23.718Z,36.8
2018-06-21T10:18:23.473Z,37.46
2018-06-21T10:19:23.485Z,37.37
2018-06-21T10:20:23.567Z,37.56
2018-06-21T10:21:23.489Z,37.18
2018-06-21T10:22:23.743Z,37.18
2018-06-21T10:53:33.546Z,37.99
2018-06-21T10:54:33.291Z,38.85
2018-06-21T10:55:33.542Z,38.75
2018-06-21T10:56:33.301Z,38.95
2018-06-21T10:57:33.547Z,39.14
2018-06-21T10:58:33.569Z,38.93
2018-06-21T10:59:33.319Z,39.12
2018-06-21T11:00:33.574Z,39.03
2018-06-21T11:01:33.572Z,38.75
2018-06-21T11:02:33.582Z,38.26
2018-06-21T11:03:33.338Z,37.77
2018-06-21T11:04:33.354Z,37.19
2018-06-21T11:05:33.620Z,37.39
2018-06-21T11:06:33.606Z,36.51
2018-06-21T11:07:33.609Z,36.8
2018-06-21T11:08:33.372Z,37.58
2018-06-21T11:09:33.361Z,38.67
2018-06-21T11:10:33.669Z,38.77
2018-06-21T11:11:33.387Z,39.14
2018-06-21T11:12:33.639Z,40.01
2018-06-21T11:13:33.651Z,40
2018-06-21T11:14:33.395Z,40.48
2018-06-21T11:15:33.680Z,40.09
2018-06-21T11:16:33.402Z,40
2018-06-21T11:17:33.667Z,38.54
2018-06-21T11:18:33.429Z,38.83
2018-06-21T11:19:33.415Z,38.24
2018-06-21T11:20:33.677Z,38.24
2018-06-21T11:21:33.900Z,37.95
2018-06-21T11:22:33.442Z,37.97
2018-06-21T11:23:33.704Z,37.48
2018-06-21T11:24:33.696Z,37.48
2018-06-21T11:25:33.706Z,37
2018-06-21T11:26:33.468Z,37.68
2018-06-21T11:27:33.714Z,37.7
2018-06-21T11:28:33.743Z,38.48
2018-06-21T11:29:33.732Z,38.1
2018-06-21T11:30:33.479Z,38.69
2018-06-21T11:31:33.497Z,39.18
2018-06-21T11:32:33.747Z,39.76
2018-06-21T11:33:34.312Z,39.94
2018-06-21T11:34:33.755Z,39.84
2018-06-21T11:35:33.517Z,39.53
2018-06-21T11:36:33.517Z,39.24
2018-06-21T11:37:33.773Z,39.82
2018-06-21T11:38:33.806Z,39.82
2018-06-21T11:39:33.803Z,40
2018-06-21T11:40:33.799Z,40.09
2018-06-21T11:41:33.556Z,39.62
2018-06-21T11:42:33.811Z,39.43
2018-06-21T11:43:33.816Z,38.77
2018-06-21T11:44:33.562Z,38.85
2018-06-21T11:45:33.821Z,39.53
2018-06-21T11:46:33.838Z,39.26
2018-06-21T11:47:33.592Z,39.06
2018-06-21T11:48:33.601Z,38.77
2018-06-21T11:49:33.852Z,39.06
2018-06-21T11:50:33.847Z,39.45
2018-06-21T11:51:33.855Z,39.26
2018-06-21T11:52:33.864Z,39.06
2018-06-21T11:53:33.879Z,39.16
2018-06-21T11:54:33.626Z,38.87
2018-06-21T11:55:33.912Z,38.67
2018-06-21T11:56:33.639Z,37.7
2018-06-21T11:57:33.913Z,37.6
2018-06-21T11:58:33.659Z,37.99
2018-06-21T11:59:33.653Z,37.99
2018-06-21T12:00:33.921Z,38.57
2018-06-21T12:01:33.925Z,37.33
2018-06-21T12:02:33.936Z,37.7
2018-06-21T12:03:33.936Z,37.71
2018-06-21T12:04:33.956Z,37.31
2018-06-21T12:05:33.945Z,37.71
2018-06-21T12:06:33.964Z,38.87
2018-06-21T12:07:33.981Z,38.28
2018-06-21T12:08:33.975Z,37.41
2018-06-21T12:09:33.996Z,38.48
2018-06-21T12:10:34.039Z,37.41
2018-06-21T12:11:33.982Z,36.72
2018-06-21T12:12:33.998Z,35.06
2018-06-21T12:13:34.023Z,35.46
2018-06-21T12:14:34.011Z,35.73
2018-06-21T12:15:34.099Z,36.32
2018-06-21T12:16:34.011Z,35.53
2018-06-21T12:17:34.019Z,35.63
2018-06-21T12:18:34.043Z,35.36
2018-06-21T12:19:33.788Z,35.75
2018-06-21T12:20:34.041Z,35.16
2018-06-21T12:21:34.095Z,35.93
2018-06-21T12:22:33.803Z,36.22
2018-06-21T12:23:34.864Z,36.8
2018-06-21T12:24:34.065Z,36.8
2018-06-21T12:25:34.079Z,36.8
2018-06-21T12:26:33.824Z,35.34
2018-06-21T12:27:33.824Z,35.44
2018-06-21T12:28:34.104Z,35.61
2018-06-21T12:29:34.097Z,36
2018-06-21T12:30:34.106Z,36.4
2018-06-21T12:31:34.107Z,36.2
2018-06-21T12:32:33.859Z,36.1
2018-06-21T12:33:34.137Z,36.1
2018-06-21T12:34:34.126Z,36.2
2018-06-21T12:35:34.124Z,35.53
2018-06-21T12:36:33.931Z,35.34
2018-06-21T12:37:33.884Z,35.63
2018-06-21T12:38:33.930Z,35.73
2018-06-21T12:39:34.147Z,35.75
2018-06-21T12:40:33.915Z,34.78
2018-06-21T12:41:34.159Z,34.48
2018-06-21T12:42:33.917Z,35.16
2018-06-21T12:43:34.231Z,34.88
2018-06-21T12:44:33.928Z,35.36
2018-06-21T12:45:33.945Z,35.26
2018-06-21T12:46:34.183Z,35.75
2018-06-21T12:47:34.192Z,35.55
2018-06-21T12:48:34.263Z,34.78
2018-06-21T12:49:33.950Z,34.69
2018-06-21T12:50:34.220Z,34.97
2018-06-21T12:51:34.218Z,35.18
2018-06-21T12:52:34.336Z,34.97
2018-06-21T12:53:34.243Z,36.43
2018-06-21T12:54:34.238Z,36.33
2018-06-21T12:55:34.258Z,36.92
2018-06-21T12:56:33.998Z,36.92
2018-06-21T12:57:34.257Z,37.41
2018-06-21T12:58:34.277Z,37.79
2018-06-21T12:59:34.284Z,37.5
2018-06-21T13:00:34.022Z,37.52
2018-06-21T13:01:34.030Z,36.84
2018-06-21T13:02:34.294Z,36.57
2018-06-21T13:03:34.303Z,36.57
2018-06-21T13:04:34.041Z,36.66
2018-06-21T13:05:34.360Z,34.92
2018-06-21T13:06:34.071Z,35.8
2018-06-21T13:07:34.325Z,36.57
2018-06-21T13:08:34.327Z,36.08
2018-06-21T13:09:34.085Z,36.37
2018-06-21T13:10:34.335Z,36.57
2018-06-21T13:11:34.341Z,36.76
2018-06-21T13:12:34.367Z,36.49
2018-06-21T13:13:34.108Z,36.47
2018-06-21T13:14:34.396Z,36.96
2018-06-21T13:15:34.531Z,37.25
2018-06-21T13:16:34.372Z,36.96
2018-06-21T13:17:34.389Z,37.73
2018-06-21T13:18:34.401Z,37.81
2018-06-21T13:19:34.140Z,37.91
2018-06-21T13:20:34.213Z,37.91
2018-06-21T13:21:34.403Z,38.3
2018-06-21T13:22:34.156Z,38.79
2018-06-21T13:23:34.184Z,38.49
2018-06-21T13:24:34.420Z,37.43
2018-06-21T13:25:34.427Z,37.99
2018-06-21T13:26:34.221Z,38.67
2018-06-21T13:27:34.440Z,38.38
2018-06-21T13:28:34.209Z,37.79
2018-06-21T13:29:34.450Z,37.43
2018-06-21T13:30:34.208Z,37.43
2018-06-21T13:31:34.221Z,37.79
2018-06-21T13:32:34.233Z,38.38
2018-06-21T13:33:34.482Z,38.18
2018-06-21T13:34:34.485Z,39.43
2018-06-21T13:35:34.261Z,40